sensor_id;sensor_type;location;lat;lon;timestamp;pressure;altitude;pressure_sealevel;temperature;humidity
30682;BME280;17439;48.092;11.842;2023-08-07T00:01:47;95082.72;;;14.75;60.95
30682;BME280;17439;48.092;11.842;2023-08-07T00:04:14;95072.94;;;14.74;61.08
30682;BME280;17439;48.092;11.842;2023-08-07T00:06:41;95066.78;;;14.77;60.77
30682;BME280;17439;48.092;11.842;2023-08-07T00:09:07;95081.13;;;14.74;60.35
30682;BME280;17439;48.092;11.842;2023-08-07T00:11:34;95079.75;;;14.80;59.93
30682;BME280;17439;48.092;11.842;2023-08-07T00:14:01;95080.88;;;14.79;60.27
30682;BME280;17439;48.092;11.842;2023-08-07T00:16:28;95076.94;;;14.77;60.14
30682;BME280;17439;48.092;11.842;2023-08-07T00:18:54;95073.75;;;14.75;59.93
30682;BME280;17439;48.092;11.842;2023-08-07T00:21:24;95090.00;;;14.71;58.99
30682;BME280;17439;48.092;11.842;2023-08-07T00:23:50;95093.22;;;14.73;59.59
30682;BME280;17439;48.092;11.842;2023-08-07T00:26:17;95083.16;;;14.77;59.46
30682;BME280;17439;48.092;11.842;2023-08-07T00:28:44;95087.50;;;14.78;59.48
30682;BME280;17439;48.092;11.842;2023-08-07T00:31:11;95092.03;;;14.74;58.99
30682;BME280;17439;48.092;11.842;2023-08-07T00:33:39;95084.09;;;14.69;60.06
30682;BME280;17439;48.092;11.842;2023-08-07T00:36:07;95090.69;;;14.68;60.46
30682;BME280;17439;48.092;11.842;2023-08-07T00:38:34;95112.53;;;14.68;60.37
30682;BME280;17439;48.092;11.842;2023-08-07T00:41:00;95091.63;;;14.60;60.31
30682;BME280;17439;48.092;11.842;2023-08-07T00:43:27;95098.91;;;14.56;60.96
30682;BME280;17439;48.092;11.842;2023-08-07T00:45:54;95110.50;;;14.52;60.84
30682;BME280;17439;48.092;11.842;2023-08-07T00:48:21;95114.84;;;14.41;61.33
30682;BME280;17439;48.092;11.842;2023-08-07T00:50:48;95107.47;;;14.29;61.67
30682;BME280;17439;48.092;11.842;2023-08-07T00:53:15;95115.78;;;14.21;62.36
30682;BME280;17439;48.092;11.842;2023-08-07T00:55:42;95111.91;;;14.09;62.63
30682;BME280;17439;48.092;11.842;2023-08-07T00:58:10;95106.69;;;14.04;62.88
30682;BME280;17439;48.092;11.842;2023-08-07T01:00:37;95107.16;;;13.94;63.03
30682;BME280;17439;48.092;11.842;2023-08-07T01:03:07;95110.78;;;13.86;63.57
30682;BME280;17439;48.092;11.842;2023-08-07T01:05:34;95116.22;;;13.73;63.60
30682;BME280;17439;48.092;11.842;2023-08-07T01:08:02;95114.59;;;13.60;64.40
30682;BME280;17439;48.092;11.842;2023-08-07T01:10:54;95115.03;;;13.50;64.78
30682;BME280;17439;48.092;11.842;2023-08-07T01:13:37;95127.94;;;13.40;65.31
30682;BME280;17439;48.092;11.842;2023-08-07T01:16:13;95118.88;;;13.36;65.79
30682;BME280;17439;48.092;11.842;2023-08-07T01:18:42;95120.75;;;13.23;66.50
30682;BME280;17439;48.092;11.842;2023-08-07T01:21:19;95129.44;;;13.17;66.83
30682;BME280;17439;48.092;11.842;2023-08-07T01:23:47;95115.91;;;13.08;67.46
30682;BME280;17439;48.092;11.842;2023-08-07T01:26:18;95132.91;;;13.05;67.92
30682;BME280;17439;48.092;11.842;2023-08-07T01:28:54;95125.28;;;12.98;67.98
30682;BME280;17439;48.092;11.842;2023-08-07T01:31:24;95124.56;;;12.89;68.92
30682;BME280;17439;48.092;11.842;2023-08-07T01:34:04;95132.13;;;12.83;68.75
30682;BME280;17439;48.092;11.842;2023-08-07T01:36:32;95124.44;;;12.85;69.15
30682;BME280;17439;48.092;11.842;2023-08-07T01:39:01;95127.34;;;12.80;69.68
30682;BME280;17439;48.092;11.842;2023-08-07T01:41:30;95128.53;;;12.70;70.42
30682;BME280;17439;48.092;11.842;2023-08-07T01:43:57;95133.66;;;12.72;70.42
30682;BME280;17439;48.092;11.842;2023-08-07T01:46:25;95132.09;;;12.71;70.77
30682;BME280;17439;48.092;11.842;2023-08-07T01:48:53;95139.19;;;12.63;71.25
30682;BME280;17439;48.092;11.842;2023-08-07T01:51:21;95138.91;;;12.56;71.62
30682;BME280;17439;48.092;11.842;2023-08-07T01:53:49;95151.38;;;12.57;71.80
30682;BME280;17439;48.092;11.842;2023-08-07T01:56:16;95146.84;;;12.61;71.97
30682;BME280;17439;48.092;11.842;2023-08-07T01:58:43;95154.75;;;12.54;72.10
30682;BME280;17439;48.092;11.842;2023-08-07T02:01:10;95144.22;;;12.52;72.08
30682;BME280;17439;48.092;11.842;2023-08-07T02:03:38;95153.34;;;12.48;72.57
30682;BME280;17439;48.092;11.842;2023-08-07T02:06:05;95159.25;;;12.50;72.50
30682;BME280;17439;48.092;11.842;2023-08-07T02:08:32;95149.84;;;12.47;72.56
30682;BME280;17439;48.092;11.842;2023-08-07T02:10:59;95152.72;;;12.42;72.62
30682;BME280;17439;48.092;11.842;2023-08-07T02:13:27;95148.91;;;12.43;72.96
30682;BME280;17439;48.092;11.842;2023-08-07T02:15:54;95158.03;;;12.39;72.88
30682;BME280;17439;48.092;11.842;2023-08-07T02:18:21;95155.97;;;12.36;73.23
30682;BME280;17439;48.092;11.842;2023-08-07T02:20:51;95146.41;;;12.29;73.51
30682;BME280;17439;48.092;11.842;2023-08-07T02:23:29;95159.22;;;12.29;73.51
30682;BME280;17439;48.092;11.842;2023-08-07T02:26:01;95168.97;;;12.30;74.04
30682;BME280;17439;48.092;11.842;2023-08-07T02:28:28;95158.75;;;12.27;74.23
30682;BME280;17439;48.092;11.842;2023-08-07T02:30:55;95149.94;;;12.30;74.34
30682;BME280;17439;48.092;11.842;2023-08-07T02:33:22;95154.31;;;12.22;74.45
30682;BME280;17439;48.092;11.842;2023-08-07T02:35:49;95155.22;;;12.26;74.23
30682;BME280;17439;48.092;11.842;2023-08-07T02:38:19;95158.75;;;12.27;74.66
30682;BME280;17439;48.092;11.842;2023-08-07T02:40:47;95166.59;;;12.28;74.41
30682;BME280;17439;48.092;11.842;2023-08-07T02:43:16;95168.34;;;12.24;74.51
30682;BME280;17439;48.092;11.842;2023-08-07T02:45:47;95168.22;;;12.21;74.80
30682;BME280;17439;48.092;11.842;2023-08-07T02:48:14;95164.56;;;12.16;74.63
30682;BME280;17439;48.092;11.842;2023-08-07T02:50:41;95173.34;;;12.13;74.77
30682;BME280;17439;48.092;11.842;2023-08-07T02:53:14;95169.53;;;12.14;74.51
30682;BME280;17439;48.092;11.842;2023-08-07T02:55:57;95167.75;;;12.19;74.86
30682;BME280;17439;48.092;11.842;2023-08-07T02:58:34;95170.66;;;12.13;74.83
30682;BME280;17439;48.092;11.842;2023-08-07T03:01:08;95177.53;;;12.11;75.23
30682;BME280;17439;48.092;11.842;2023-08-07T03:03:35;95169.22;;;12.07;75.40
30682;BME280;17439;48.092;11.842;2023-08-07T03:06:20;95176.41;;;12.12;74.62
30682;BME280;17439;48.092;11.842;2023-08-07T03:09:22;95172.25;;;12.14;75.44
30682;BME280;17439;48.092;11.842;2023-08-07T03:11:49;95174.34;;;12.09;75.58
30682;BME280;17439;48.092;11.842;2023-08-07T03:14:26;95178.66;;;12.10;74.61
30682;BME280;17439;48.092;11.842;2023-08-07T03:16:53;95178.78;;;12.13;75.61
30682;BME280;17439;48.092;11.842;2023-08-07T03:19:20;95181.19;;;12.15;75.62
30682;BME280;17439;48.092;11.842;2023-08-07T03:21:48;95185.38;;;12.12;74.69
30682;BME280;17439;48.092;11.842;2023-08-07T03:24:15;95188.88;;;12.13;75.44
30682;BME280;17439;48.092;11.842;2023-08-07T03:26:43;95182.00;;;12.15;75.65
30682;BME280;17439;48.092;11.842;2023-08-07T03:29:12;95174.19;;;12.14;75.79
30682;BME280;17439;48.092;11.842;2023-08-07T03:31:41;95170.66;;;12.13;75.61
30682;BME280;17439;48.092;11.842;2023-08-07T03:34:10;95185.53;;;12.07;73.90
30682;BME280;17439;48.092;11.842;2023-08-07T03:36:48;95182.78;;;12.16;74.86
30682;BME280;17439;48.092;11.842;2023-08-07T03:39:17;95188.56;;;12.14;75.63
30682;BME280;17439;48.092;11.842;2023-08-07T03:41:44;95183.56;;;12.16;75.67
30682;BME280;17439;48.092;11.842;2023-08-07T03:44:12;95189.50;;;12.19;75.75
30682;BME280;17439;48.092;11.842;2023-08-07T03:46:38;95178.97;;;12.17;75.33
30682;BME280;17439;48.092;11.842;2023-08-07T03:49:05;95200.84;;;12.21;74.99
30682;BME280;17439;48.092;11.842;2023-08-07T03:51:32;95190.28;;;12.19;75.27
30682;BME280;17439;48.092;11.842;2023-08-07T03:53:59;95197.97;;;12.17;75.52
30682;BME280;17439;48.092;11.842;2023-08-07T03:56:26;95204.19;;;12.18;75.63
30682;BME280;17439;48.092;11.842;2023-08-07T03:58:53;95202.59;;;12.16;75.27
30682;BME280;17439;48.092;11.842;2023-08-07T04:01:23;95219.72;;;12.17;75.07
30682;BME280;17439;48.092;11.842;2023-08-07T04:03:50;95219.06;;;12.20;75.19
30682;BME280;17439;48.092;11.842;2023-08-07T04:06:17;95223.69;;;12.20;74.99
30682;BME280;17439;48.092;11.842;2023-08-07T04:08:47;95233.78;;;12.19;73.13
30682;BME280;17439;48.092;11.842;2023-08-07T04:11:14;95215.22;;;12.21;73.63
30682;BME280;17439;48.092;11.842;2023-08-07T04:13:40;95218.69;;;12.30;74.97
30682;BME280;17439;48.092;11.842;2023-08-07T04:16:07;95225.53;;;12.37;74.72
30682;BME280;17439;48.092;11.842;2023-08-07T04:18:34;95225.06;;;12.34;74.55
30682;BME280;17439;48.092;11.842;2023-08-07T04:21:01;95230.03;;;12.32;74.01
30682;BME280;17439;48.092;11.842;2023-08-07T04:23:28;95224.25;;;12.34;71.92
30682;BME280;17439;48.092;11.842;2023-08-07T04:25:55;95229.16;;;12.49;74.17
30682;BME280;17439;48.092;11.842;2023-08-07T04:28:22;95213.47;;;12.55;74.22
30682;BME280;17439;48.092;11.842;2023-08-07T04:30:50;95231.34;;;12.56;73.86
30682;BME280;17439;48.092;11.842;2023-08-07T04:33:17;95216.75;;;12.61;74.05
30682;BME280;17439;48.092;11.842;2023-08-07T04:35:44;95240.13;;;12.62;73.22
30682;BME280;17439;48.092;11.842;2023-08-07T04:38:10;95242.50;;;12.63;73.38
30682;BME280;17439;48.092;11.842;2023-08-07T04:40:37;95248.75;;;12.64;71.91
30682;BME280;17439;48.092;11.842;2023-08-07T04:43:04;95246.16;;;12.67;71.87
30682;BME280;17439;48.092;11.842;2023-08-07T04:45:30;95246.97;;;12.68;71.64
30682;BME280;17439;48.092;11.842;2023-08-07T04:47:57;95245.69;;;12.65;71.54
30682;BME280;17439;48.092;11.842;2023-08-07T04:50:24;95251.44;;;12.73;71.49
30682;BME280;17439;48.092;11.842;2023-08-07T04:52:50;95254.47;;;12.71;70.73
30682;BME280;17439;48.092;11.842;2023-08-07T04:55:17;95256.34;;;12.79;70.55
30682;BME280;17439;48.092;11.842;2023-08-07T04:57:44;95236.16;;;12.80;71.45
30682;BME280;17439;48.092;11.842;2023-08-07T05:00:11;95259.19;;;12.83;71.53
30682;BME280;17439;48.092;11.842;2023-08-07T05:02:38;95251.03;;;12.83;71.34
30682;BME280;17439;48.092;11.842;2023-08-07T05:05:05;95256.16;;;12.84;70.89
30682;BME280;17439;48.092;11.842;2023-08-07T05:07:33;95258.66;;;12.89;71.00
30682;BME280;17439;48.092;11.842;2023-08-07T05:10:01;95260.59;;;12.89;70.89
30682;BME280;17439;48.092;11.842;2023-08-07T05:12:28;95259.13;;;12.92;70.78
30682;BME280;17439;48.092;11.842;2023-08-07T05:14:55;95253.97;;;12.99;70.81
30682;BME280;17439;48.092;11.842;2023-08-07T05:17:22;95267.69;;;13.02;70.20
30682;BME280;17439;48.092;11.842;2023-08-07T05:19:48;95264.19;;;13.02;69.21
30682;BME280;17439;48.092;11.842;2023-08-07T05:22:15;95265.47;;;13.04;70.07
30682;BME280;17439;48.092;11.842;2023-08-07T05:24:42;95260.94;;;13.09;70.39
30682;BME280;17439;48.092;11.842;2023-08-07T05:27:09;95260.06;;;12.96;66.43
30682;BME280;17439;48.092;11.842;2023-08-07T05:29:36;95269.09;;;13.09;69.85
30682;BME280;17439;48.092;11.842;2023-08-07T05:32:03;95265.72;;;13.12;69.09
30682;BME280;17439;48.092;11.842;2023-08-07T05:34:30;95268.91;;;13.14;68.71
30682;BME280;17439;48.092;11.842;2023-08-07T05:36:57;95268.38;;;13.20;70.04
30682;BME280;17439;48.092;11.842;2023-08-07T05:39:23;95288.03;;;13.26;70.46
30682;BME280;17439;48.092;11.842;2023-08-07T05:41:50;95279.66;;;13.31;69.92
30682;BME280;17439;48.092;11.842;2023-08-07T05:44:17;95277.75;;;13.32;68.22
30682;BME280;17439;48.092;11.842;2023-08-07T05:46:43;95277.91;;;13.35;69.01
30682;BME280;17439;48.092;11.842;2023-08-07T05:49:10;95284.13;;;13.36;68.99
30682;BME280;17439;48.092;11.842;2023-08-07T05:51:37;95292.78;;;13.38;68.27
30682;BME280;17439;48.092;11.842;2023-08-07T05:54:03;95282.22;;;13.36;68.46
30682;BME280;17439;48.092;11.842;2023-08-07T05:56:30;95290.97;;;13.42;68.63
30682;BME280;17439;48.092;11.842;2023-08-07T05:58:57;95289.97;;;13.47;69.52
30682;BME280;17439;48.092;11.842;2023-08-07T06:01:23;95298.59;;;13.49;68.38
30682;BME280;17439;48.092;11.842;2023-08-07T06:03:50;95299.28;;;13.46;67.21
30682;BME280;17439;48.092;11.842;2023-08-07T06:06:17;95309.84;;;13.47;68.04
30682;BME280;17439;48.092;11.842;2023-08-07T06:08:43;95302.31;;;13.44;67.16
30682;BME280;17439;48.092;11.842;2023-08-07T06:11:10;95310.66;;;13.48;67.93
30682;BME280;17439;48.092;11.842;2023-08-07T06:13:37;95313.38;;;13.48;65.80
30682;BME280;17439;48.092;11.842;2023-08-07T06:16:04;95310.91;;;13.55;68.47
30682;BME280;17439;48.092;11.842;2023-08-07T06:18:30;95308.16;;;13.55;67.81
30682;BME280;17439;48.092;11.842;2023-08-07T06:20:57;95310.09;;;13.54;66.62
30682;BME280;17439;48.092;11.842;2023-08-07T06:23:24;95314.34;;;13.64;68.38
30682;BME280;17439;48.092;11.842;2023-08-07T06:25:50;95316.63;;;13.62;67.21
30682;BME280;17439;48.092;11.842;2023-08-07T06:28:23;95320.91;;;13.63;66.12
30682;BME280;17439;48.092;11.842;2023-08-07T06:30:50;95314.03;;;13.66;67.19
30682;BME280;17439;48.092;11.842;2023-08-07T06:33:17;95317.84;;;13.65;67.01
30682;BME280;17439;48.092;11.842;2023-08-07T06:35:43;95317.34;;;13.71;68.03
30682;BME280;17439;48.092;11.842;2023-08-07T06:38:10;95302.56;;;13.72;64.30
30682;BME280;17439;48.092;11.842;2023-08-07T06:40:37;95318.84;;;13.81;67.97
30682;BME280;17439;48.092;11.842;2023-08-07T06:43:04;95303.63;;;13.80;67.16
30682;BME280;17439;48.092;11.842;2023-08-07T06:45:31;95317.03;;;13.85;66.79
30682;BME280;17439;48.092;11.842;2023-08-07T06:47:57;95316.25;;;13.85;64.60
30682;BME280;17439;48.092;11.842;2023-08-07T06:50:24;95310.25;;;13.91;67.14
30682;BME280;17439;48.092;11.842;2023-08-07T06:52:51;95328.13;;;14.01;68.37
30682;BME280;17439;48.092;11.842;2023-08-07T06:55:18;95334.03;;;14.03;67.73
30682;BME280;17439;48.092;11.842;2023-08-07T06:57:44;95327.78;;;14.03;63.53
30682;BME280;17439;48.092;11.842;2023-08-07T07:00:11;95330.75;;;14.10;63.70
30682;BME280;17439;48.092;11.842;2023-08-07T07:02:38;95348.50;;;14.16;66.55
30682;BME280;17439;48.092;11.842;2023-08-07T07:05:05;95330.81;;;14.22;64.65
30682;BME280;17439;48.092;11.842;2023-08-07T07:07:32;95337.28;;;14.30;65.79
30682;BME280;17439;48.092;11.842;2023-08-07T07:09:58;95347.78;;;14.40;65.04
30682;BME280;17439;48.092;11.842;2023-08-07T07:12:25;95329.59;;;14.44;65.40
30682;BME280;17439;48.092;11.842;2023-08-07T07:14:52;95340.75;;;14.51;66.27
30682;BME280;17439;48.092;11.842;2023-08-07T07:17:19;95345.63;;;14.58;65.62
30682;BME280;17439;48.092;11.842;2023-08-07T07:19:45;95339.44;;;14.70;66.26
30682;BME280;17439;48.092;11.842;2023-08-07T07:22:12;95344.34;;;14.77;66.52
30682;BME280;17439;48.092;11.842;2023-08-07T07:24:39;95329.53;;;14.78;63.44
30682;BME280;17439;48.092;11.842;2023-08-07T07:27:06;95349.47;;;14.91;63.01
30682;BME280;17439;48.092;11.842;2023-08-07T07:29:32;95351.97;;;14.96;62.29
30682;BME280;17439;48.092;11.842;2023-08-07T07:31:59;95352.84;;;15.00;62.58
30682;BME280;17439;48.092;11.842;2023-08-07T07:34:26;95352.41;;;15.10;63.20
30682;BME280;17439;48.092;11.842;2023-08-07T07:36:53;95347.50;;;15.16;62.44
30682;BME280;17439;48.092;11.842;2023-08-07T07:39:20;95364.00;;;15.19;62.12
30682;BME280;17439;48.092;11.842;2023-08-07T07:41:47;95356.94;;;15.18;62.53
30682;BME280;17439;48.092;11.842;2023-08-07T07:44:14;95373.34;;;15.31;63.73
30682;BME280;17439;48.092;11.842;2023-08-07T07:46:40;95351.81;;;15.41;62.92
30682;BME280;17439;48.092;11.842;2023-08-07T07:49:07;95378.88;;;15.47;62.94
30682;BME280;17439;48.092;11.842;2023-08-07T07:51:34;95354.06;;;15.52;61.73
30682;BME280;17439;48.092;11.842;2023-08-07T07:54:01;95373.19;;;15.52;59.58
30682;BME280;17439;48.092;11.842;2023-08-07T07:56:33;95366.09;;;15.63;61.66
30682;BME280;17439;48.092;11.842;2023-08-07T07:59:00;95372.31;;;15.76;62.01
30682;BME280;17439;48.092;11.842;2023-08-07T08:01:27;95368.25;;;15.82;62.05
30682;BME280;17439;48.092;11.842;2023-08-07T08:03:53;95357.53;;;15.89;60.50
30682;BME280;17439;48.092;11.842;2023-08-07T08:06:20;95376.84;;;15.96;58.50
30682;BME280;17439;48.092;11.842;2023-08-07T08:08:47;95389.13;;;16.03;58.52
30682;BME280;17439;48.092;11.842;2023-08-07T08:11:14;95393.91;;;16.06;58.97
30682;BME280;17439;48.092;11.842;2023-08-07T08:13:40;95388.09;;;16.07;59.12
30682;BME280;17439;48.092;11.842;2023-08-07T08:16:07;95391.88;;;16.03;58.06
30682;BME280;17439;48.092;11.842;2023-08-07T08:18:34;95401.19;;;16.02;57.49
30682;BME280;17439;48.092;11.842;2023-08-07T08:21:01;95390.97;;;15.99;56.80
30682;BME280;17439;48.092;11.842;2023-08-07T08:23:27;95389.13;;;16.03;57.59
30682;BME280;17439;48.092;11.842;2023-08-07T08:25:54;95404.41;;;16.04;58.79
30682;BME280;17439;48.092;11.842;2023-08-07T08:28:21;95400.41;;;16.01;57.20
30682;BME280;17439;48.092;11.842;2023-08-07T08:30:50;95407.16;;;16.04;59.13
30682;BME280;17439;48.092;11.842;2023-08-07T08:33:17;95404.06;;;16.05;60.21
30682;BME280;17439;48.092;11.842;2023-08-07T08:35:44;95418.53;;;16.06;59.37
30682;BME280;17439;48.092;11.842;2023-08-07T08:38:10;95409.06;;;16.03;57.97
30682;BME280;17439;48.092;11.842;2023-08-07T08:40:38;95415.56;;;15.99;59.57
30682;BME280;17439;48.092;11.842;2023-08-07T08:43:05;95426.75;;;15.93;59.39
30682;BME280;17439;48.092;11.842;2023-08-07T08:45:33;95432.69;;;15.95;60.00
30682;BME280;17439;48.092;11.842;2023-08-07T08:48:01;95428.44;;;15.98;58.90
30682;BME280;17439;48.092;11.842;2023-08-07T08:50:29;95420.00;;;16.03;57.67
30682;BME280;17439;48.092;11.842;2023-08-07T08:52:56;95432.88;;;16.03;58.23
30682;BME280;17439;48.092;11.842;2023-08-07T08:55:23;95436.91;;;15.93;57.57
30682;BME280;17439;48.092;11.842;2023-08-07T08:57:51;95423.78;;;15.99;57.39
30682;BME280;17439;48.092;11.842;2023-08-07T09:00:18;95424.34;;;16.04;58.57
30682;BME280;17439;48.092;11.842;2023-08-07T09:02:46;95444.50;;;16.00;58.83
30682;BME280;17439;48.092;11.842;2023-08-07T09:05:14;95441.44;;;16.01;57.68
30682;BME280;17439;48.092;11.842;2023-08-07T09:07:41;95427.31;;;15.99;56.12
30682;BME280;17439;48.092;11.842;2023-08-07T09:10:10;95436.88;;;16.05;55.39
30682;BME280;17439;48.092;11.842;2023-08-07T09:12:40;95435.84;;;16.10;57.12
30682;BME280;17439;48.092;11.842;2023-08-07T09:15:09;95438.09;;;16.08;57.09
30682;BME280;17439;48.092;11.842;2023-08-07T09:17:42;95433.53;;;16.12;54.18
30682;BME280;17439;48.092;11.842;2023-08-07T09:20:10;95448.56;;;16.18;55.57
30682;BME280;17439;48.092;11.842;2023-08-07T09:22:38;95429.97;;;16.24;56.98
30682;BME280;17439;48.092;11.842;2023-08-07T09:25:05;95444.97;;;16.30;57.12
30682;BME280;17439;48.092;11.842;2023-08-07T09:27:32;95427.53;;;16.35;56.80
30682;BME280;17439;48.092;11.842;2023-08-07T09:29:59;95420.31;;;16.42;56.41
30682;BME280;17439;48.092;11.842;2023-08-07T09:32:26;95424.50;;;16.52;54.03
30682;BME280;17439;48.092;11.842;2023-08-07T09:34:52;95413.41;;;16.61;56.69
30682;BME280;17439;48.092;11.842;2023-08-07T09:37:19;95424.16;;;16.69;58.25
30682;BME280;17439;48.092;11.842;2023-08-07T09:39:46;95418.00;;;16.73;53.56
30682;BME280;17439;48.092;11.842;2023-08-07T09:42:14;95424.03;;;16.78;54.82
30682;BME280;17439;48.092;11.842;2023-08-07T09:44:41;95426.34;;;16.92;55.27
30682;BME280;17439;48.092;11.842;2023-08-07T09:47:18;95436.31;;;17.00;52.07
30682;BME280;17439;48.092;11.842;2023-08-07T09:49:45;95424.44;;;17.09;56.04
30682;BME280;17439;48.092;11.842;2023-08-07T09:52:14;95431.41;;;17.06;49.59
30682;BME280;17439;48.092;11.842;2023-08-07T09:54:41;95429.97;;;17.12;53.61
30682;BME280;17439;48.092;11.842;2023-08-07T09:57:08;95424.66;;;17.35;51.48
30682;BME280;17439;48.092;11.842;2023-08-07T09:59:35;95412.75;;;17.28;48.59
30682;BME280;17439;48.092;11.842;2023-08-07T10:02:02;95422.81;;;17.39;53.64
30682;BME280;17439;48.092;11.842;2023-08-07T10:04:30;95431.66;;;17.49;54.43
30682;BME280;17439;48.092;11.842;2023-08-07T10:06:57;95420.84;;;17.56;54.63
30682;BME280;17439;48.092;11.842;2023-08-07T10:09:26;95450.59;;;17.73;51.15
30682;BME280;17439;48.092;11.842;2023-08-07T10:11:54;95433.69;;;17.87;52.70
30682;BME280;17439;48.092;11.842;2023-08-07T10:14:22;95437.06;;;17.97;52.46
30682;BME280;17439;48.092;11.842;2023-08-07T10:16:49;95425.44;;;18.03;50.78
30682;BME280;17439;48.092;11.842;2023-08-07T10:19:15;95430.38;;;18.13;50.95
30682;BME280;17439;48.092;11.842;2023-08-07T10:21:42;95418.22;;;18.15;49.74
30682;BME280;17439;48.092;11.842;2023-08-07T10:24:10;95417.56;;;18.21;51.21
30682;BME280;17439;48.092;11.842;2023-08-07T10:26:41;95421.53;;;18.24;51.34
30682;BME280;17439;48.092;11.842;2023-08-07T10:29:11;95414.56;;;18.26;52.08
30682;BME280;17439;48.092;11.842;2023-08-07T10:31:40;95425.28;;;18.35;54.77
30682;BME280;17439;48.092;11.842;2023-08-07T10:34:08;95416.84;;;18.44;52.46
30682;BME280;17439;48.092;11.842;2023-08-07T10:36:36;95426.94;;;18.59;52.04
30682;BME280;17439;48.092;11.842;2023-08-07T10:39:10;95427.28;;;18.58;50.13
30682;BME280;17439;48.092;11.842;2023-08-07T10:41:44;95422.81;;;18.69;48.34
30682;BME280;17439;48.092;11.842;2023-08-07T10:44:25;95420.00;;;18.65;43.42
30682;BME280;17439;48.092;11.842;2023-08-07T10:46:53;95419.09;;;18.81;49.96
30682;BME280;17439;48.092;11.842;2023-08-07T10:49:40;95410.44;;;18.79;49.46
30682;BME280;17439;48.092;11.842;2023-08-07T10:52:08;95409.03;;;18.85;50.36
30682;BME280;17439;48.092;11.842;2023-08-07T10:54:46;95421.41;;;18.98;49.04
30682;BME280;17439;48.092;11.842;2023-08-07T10:57:14;95405.47;;;19.08;48.02
30682;BME280;17439;48.092;11.842;2023-08-07T11:00:04;95403.09;;;19.06;48.50
30682;BME280;17439;48.092;11.842;2023-08-07T11:02:31;95413.78;;;19.11;46.46
30682;BME280;17439;48.092;11.842;2023-08-07T11:04:59;95413.84;;;19.15;45.84
30682;BME280;17439;48.092;11.842;2023-08-07T11:07:27;95413.03;;;19.14;46.73
30682;BME280;17439;48.092;11.842;2023-08-07T11:09:55;95406.69;;;19.10;47.15
30682;BME280;17439;48.092;11.842;2023-08-07T11:12:28;95410.91;;;19.04;45.91
30682;BME280;17439;48.092;11.842;2023-08-07T11:14:56;95406.78;;;19.14;47.67
30682;BME280;17439;48.092;11.842;2023-08-07T11:17:26;95398.25;;;19.23;49.36
30682;BME280;17439;48.092;11.842;2023-08-07T11:19:55;95392.03;;;19.26;48.10
30682;BME280;17439;48.092;11.842;2023-08-07T11:22:22;95408.56;;;19.29;49.68
30682;BME280;17439;48.092;11.842;2023-08-07T11:24:50;95395.00;;;19.40;48.68
30682;BME280;17439;48.092;11.842;2023-08-07T11:27:17;95401.59;;;19.35;44.42
30682;BME280;17439;48.092;11.842;2023-08-07T11:29:49;95395.34;;;19.62;45.63
30682;BME280;17439;48.092;11.842;2023-08-07T11:32:17;95395.00;;;19.67;47.69
30682;BME280;17439;48.092;11.842;2023-08-07T11:34:49;95389.91;;;19.69;42.68
30682;BME280;17439;48.092;11.842;2023-08-07T11:37:16;95386.31;;;19.91;45.53
30682;BME280;17439;48.092;11.842;2023-08-07T11:39:44;95406.47;;;19.99;47.14
30682;BME280;17439;48.092;11.842;2023-08-07T11:42:10;95393.25;;;20.08;45.29
30682;BME280;17439;48.092;11.842;2023-08-07T11:44:37;95401.78;;;20.00;45.09
30682;BME280;17439;48.092;11.842;2023-08-07T11:47:04;95393.59;;;20.07;44.14
30682;BME280;17439;48.092;11.842;2023-08-07T11:49:31;95406.59;;;20.06;43.63
30682;BME280;17439;48.092;11.842;2023-08-07T11:51:58;95385.59;;;19.94;45.09
30682;BME280;17439;48.092;11.842;2023-08-07T11:54:25;95389.41;;;19.86;45.45
30682;BME280;17439;48.092;11.842;2023-08-07T11:56:52;95406.28;;;19.85;46.96
30682;BME280;17439;48.092;11.842;2023-08-07T11:59:18;95404.34;;;19.85;46.98
30682;BME280;17439;48.092;11.842;2023-08-07T12:01:45;95410.09;;;19.77;46.16
30682;BME280;17439;48.092;11.842;2023-08-07T12:04:12;95409.59;;;19.71;47.17
30682;BME280;17439;48.092;11.842;2023-08-07T12:06:53;95412.81;;;19.50;44.71
30682;BME280;17439;48.092;11.842;2023-08-07T12:09:20;95421.00;;;19.46;48.16
30682;BME280;17439;48.092;11.842;2023-08-07T12:11:47;95430.72;;;19.40;46.38
30682;BME280;17439;48.092;11.842;2023-08-07T12:14:14;95420.38;;;19.30;46.04
30682;BME280;17439;48.092;11.842;2023-08-07T12:16:43;95424.03;;;19.14;43.97
30682;BME280;17439;48.092;11.842;2023-08-07T12:19:10;95438.13;;;19.13;46.17
30682;BME280;17439;48.092;11.842;2023-08-07T12:21:37;95433.00;;;19.11;46.70
30682;BME280;17439;48.092;11.842;2023-08-07T12:24:06;95434.97;;;19.11;47.01
30682;BME280;17439;48.092;11.842;2023-08-07T12:26:33;95445.59;;;19.12;48.01
30682;BME280;17439;48.092;11.842;2023-08-07T12:29:00;95442.22;;;19.23;46.50
30682;BME280;17439;48.092;11.842;2023-08-07T12:31:26;95435.63;;;19.27;47.00
30682;BME280;17439;48.092;11.842;2023-08-07T12:33:53;95446.69;;;19.31;46.48
30682;BME280;17439;48.092;11.842;2023-08-07T12:36:21;95440.88;;;19.36;44.93
30682;BME280;17439;48.092;11.842;2023-08-07T12:38:48;95429.94;;;19.39;44.31
30682;BME280;17439;48.092;11.842;2023-08-07T12:41:15;95419.69;;;19.36;44.68
30682;BME280;17439;48.092;11.842;2023-08-07T12:43:44;95427.44;;;19.31;44.26
30682;BME280;17439;48.092;11.842;2023-08-07T12:46:11;95432.25;;;19.37;45.48
30682;BME280;17439;48.092;11.842;2023-08-07T12:48:40;95435.88;;;19.42;46.18
30682;BME280;17439;48.092;11.842;2023-08-07T12:51:07;95431.59;;;19.44;46.45
30682;BME280;17439;48.092;11.842;2023-08-07T12:53:34;95436.41;;;19.51;45.04
30682;BME280;17439;48.092;11.842;2023-08-07T12:56:00;95442.88;;;19.62;42.44